createdAt,value
2022-10-04T00:02:30.969Z,68.32
2022-10-04T00:05:08.792Z,68.05
2022-10-04T00:07:40.539Z,68.47
2022-10-04T00:10:21.134Z,67.82
2022-10-04T00:12:59.352Z,67.88
2022-10-04T00:15:29.635Z,68.83
2022-10-04T00:18:19.075Z,68.35
2022-10-04T00:20:48.482Z,69.27
2022-10-04T00:23:25.523Z,68.79
2022-10-04T00:26:00.082Z,70.04
2022-10-04T00:28:26.690Z,70.26
2022-10-04T00:31:11.422Z,69.20
2022-10-04T00:33:54.080Z,70.65
2022-10-04T00:36:23.487Z,70.10
2022-10-04T00:39:03.637Z,69.32
2022-10-04T00:41:53.684Z,69.32
2022-10-04T00:45:00.180Z,68.75
2022-10-04T00:47:33.058Z,69.20
2022-10-04T00:50:13.925Z,68.88
2022-10-04T00:52:45.369Z,68.92
2022-10-04T00:55:23.115Z,68.39
2022-10-04T00:57:54.424Z,68.93
2022-10-04T01:00:21.359Z,68.63
2022-10-04T01:03:03.889Z,67.77
2022-10-04T01:05:35.233Z,67.86
2022-10-04T01:08:11.597Z,67.38
2022-10-04T01:10:52.279Z,67.29
2022-10-04T01:13:52.868Z,67.00
2022-10-04T01:16:23.193Z,67.52
2022-10-04T01:18:49.706Z,67.65
2022-10-04T01:21:19.047Z,67.32
2022-10-04T01:23:45.495Z,67.56
2022-10-04T01:26:26.879Z,66.84
2022-10-04T01:28:54.172Z,67.34
2022-10-04T01:31:21.020Z,67.57
2022-10-04T01:33:47.894Z,67.49
2022-10-04T01:36:14.481Z,67.44
2022-10-04T01:38:41.386Z,67.42
2022-10-04T01:41:10.788Z,67.36
2022-10-04T01:43:41.318Z,67.27
2022-10-04T01:46:16.609Z,66.93
2022-10-04T01:48:45.838Z,67.41
2022-10-04T01:51:24.344Z,66.96
2022-10-04T01:53:59.760Z,67.16
2022-10-04T01:56:31.541Z,67.39
2022-10-04T01:59:07.492Z,66.75
2022-10-04T02:02:00.422Z,66.67
2022-10-04T02:04:29.527Z,67.58
2022-10-04T02:06:59.112Z,67.67
2022-10-04T02:09:30.019Z,67.39
2022-10-04T02:11:57.152Z,67.60
2022-10-04T02:14:27.671Z,67.66
2022-10-04T02:16:54.529Z,67.89
2022-10-04T02:19:31.200Z,67.49
2022-10-04T02:21:58.973Z,67.95
2022-10-04T02:24:25.872Z,67.85
2022-10-04T02:26:53.270Z,67.71
2022-10-04T02:29:21.179Z,67.79
2022-10-04T02:31:51.011Z,67.84
2022-10-04T02:34:19.040Z,67.95
2022-10-04T02:36:45.988Z,67.81
2022-10-04T02:39:23.212Z,67.32
2022-10-04T02:41:55.480Z,67.53
2022-10-04T02:44:28.174Z,67.30
2022-10-04T02:47:16.707Z,67.30
2022-10-04T02:49:48.432Z,67.73
2022-10-04T02:52:26.258Z,67.57
2022-10-04T02:55:06.042Z,67.04
2022-10-04T02:57:34.971Z,67.83
2022-10-04T03:00:29.005Z,67.00
2022-10-04T03:03:16.398Z,66.75
2022-10-04T03:05:47.613Z,67.59
2022-10-04T03:08:14.599Z,67.90
2022-10-04T03:10:42.361Z,67.95
2022-10-04T03:13:09.047Z,67.93
2022-10-04T03:15:35.713Z,67.95
2022-10-04T03:18:02.373Z,68.04
2022-10-04T03:20:29.116Z,68.01
2022-10-04T03:22:56.910Z,68.12
2022-10-04T03:25:35.361Z,67.27
2022-10-04T03:28:02.711Z,68.16
2022-10-04T03:30:30.422Z,68.07
2022-10-04T03:32:57.090Z,68.13
2022-10-04T03:35:32.204Z,67.39
2022-10-04T03:37:59.683Z,68.08
2022-10-04T03:40:30.576Z,67.74
2022-10-04T03:42:59.369Z,68.18
2022-10-04T03:45:27.928Z,68.11
2022-10-04T03:48:00.982Z,67.78
2022-10-04T03:50:35.347Z,67.50
2022-10-04T03:53:08.078Z,68.06
2022-10-04T03:55:38.463Z,67.94
2022-10-04T03:58:05.571Z,68.16
2022-10-04T04:00:34.904Z,68.26
2022-10-04T04:03:07.241Z,67.81
2022-10-04T04:05:57.731Z,67.24
2022-10-04T04:08:32.584Z,67.43
2022-10-04T04:11:02.808Z,68.17
2022-10-04T04:13:45.834Z,67.73
2022-10-04T04:16:12.836Z,68.43
2022-10-04T04:18:43.332Z,68.49
2022-10-04T04:21:13.334Z,68.76
2022-10-04T04:23:46.859Z,68.27
2022-10-04T04:26:17.962Z,68.03
2022-10-04T04:28:46.341Z,68.51
2022-10-04T04:31:23.276Z,67.81
2022-10-04T04:34:18.739Z,67.99
2022-10-04T04:36:45.524Z,68.68
2022-10-04T04:39:14.672Z,68.39
2022-10-04T04:41:41.386Z,68.57
2022-10-04T04:44:17.951Z,67.79
2022-10-04T04:46:46.407Z,68.43
2022-10-04T04:49:16.734Z,68.13
2022-10-04T04:51:49.435Z,67.92
2022-10-04T04:54:17.316Z,68.33
2022-10-04T04:56:44.402Z,68.18
2022-10-04T04:59:12.243Z,68.29
2022-10-04T05:01:44.662Z,67.95
2022-10-04T05:04:11.709Z,68.47
2022-10-04T05:06:58.706Z,68.19
2022-10-04T05:09:38.218Z,67.81
2022-10-04T05:12:10.141Z,68.21
2022-10-04T05:14:45.383Z,67.48
2022-10-04T05:17:20.097Z,67.19
2022-10-04T05:19:46.883Z,68.40
2022-10-04T05:22:18.949Z,68.11
2022-10-04T05:24:48.614Z,68.61
2022-10-04T05:27:23.007Z,68.27
2022-10-04T05:30:00.220Z,67.73
2022-10-04T05:32:51.076Z,68.46
2022-10-04T05:35:20.250Z,69.08
2022-10-04T05:38:06.022Z,68.22
2022-10-04T05:40:49.702Z,68.23
2022-10-04T05:43:22.305Z,68.98
2022-10-04T05:46:25.288Z,68.47
2022-10-04T05:48:54.650Z,70.33
2022-10-04T05:51:26.443Z,70.12
2022-10-04T05:53:54.203Z,70.66
2022-10-04T05:56:39.076Z,69.18
2022-10-04T05:59:29.947Z,69.61
2022-10-04T06:02:18.263Z,69.82
2022-10-04T06:05:06.647Z,70.02
2022-10-04T06:08:05.537Z,69.81
2022-10-04T06:10:44.153Z,69.74
2022-10-04T06:13:48.373Z,69.33
2022-10-04T06:16:39.777Z,69.39
2022-10-04T06:19:23.900Z,70.40
2022-10-04T06:21:50.412Z,71.49
2022-10-04T06:24:27.447Z,70.20
2022-10-04T06:27:01.261Z,71.50
2022-10-04T06:29:36.193Z,71.56
2022-10-04T06:32:19.770Z,72.73
2022-10-04T06:35:01.595Z,71.50
2022-10-04T06:37:51.301Z,71.96
2022-10-04T06:40:23.739Z,73.60
2022-10-04T06:43:02.055Z,73.16
2022-10-04T06:45:54.555Z,73.70
2022-10-04T06:48:30.036Z,74.91
2022-10-04T06:50:56.478Z,75.26
2022-10-04T06:53:34.789Z,75.20
2022-10-04T06:56:04.247Z,75.77
2022-10-04T06:58:36.880Z,75.98
2022-10-04T07:01:14.630Z,75.32
2022-10-04T07:03:51.770Z,75.18
2022-10-04T07:06:27.728Z,74.93
2022-10-04T07:08:55.183Z,75.49
2022-10-04T07:11:32.303Z,74.35
2022-10-04T07:14:11.396Z,74.12
2022-10-04T07:16:46.907Z,73.88
2022-10-04T07:19:19.637Z,73.50
2022-10-04T07:22:12.409Z,72.83
2022-10-04T07:24:50.860Z,73.87
2022-10-04T07:27:22.091Z,73.31
2022-10-04T07:29:54.908Z,72.99
2022-10-04T07:32:29.905Z,73.11
2022-10-04T07:35:14.602Z,72.60
2022-10-04T07:37:55.085Z,72.39
2022-10-04T07:40:33.143Z,72.53
2022-10-04T07:43:05.578Z,73.33
2022-10-04T07:45:39.477Z,72.53
2022-10-04T07:48:16.527Z,71.88
2022-10-04T07:50:50.954Z,71.05
2022-10-04T07:53:42.739Z,70.92
2022-10-04T07:56:43.680Z,71.54
2022-10-04T07:59:25.125Z,71.46
2022-10-04T08:02:48.598Z,71.18
2022-10-04T08:05:28.793Z,70.99
2022-10-04T08:08:32.906Z,69.81
2022-10-04T08:11:15.415Z,71.06
2022-10-04T08:13:57.819Z,70.11
2022-10-04T08:16:37.152Z,69.88
2022-10-04T08:19:21.631Z,69.71
2022-10-04T08:22:05.464Z,69.82
2022-10-04T08:24:58.156Z,69.15
2022-10-04T08:28:05.496Z,70.26
2022-10-04T08:30:50.383Z,69.09
2022-10-04T08:33:30.627Z,68.98
2022-10-04T08:36:17.775Z,69.95
2022-10-04T08:38:49.982Z,69.68
2022-10-04T08:41:19.251Z,70.99
2022-10-04T08:43:57.676Z,68.27
2022-10-04T08:46:39.150Z,68.92
2022-10-04T08:49:28.298Z,68.84
2022-10-04T08:52:32.000Z,67.25
2022-10-04T08:55:23.324Z,67.45
2022-10-04T08:57:55.905Z,68.51
2022-10-04T09:00:43.635Z,68.06
2022-10-04T09:03:45.367Z,68.11
2022-10-04T09:06:32.293Z,66.38
2022-10-04T09:09:26.750Z,65.78
2022-10-04T09:12:11.385Z,66.45
2022-10-04T09:15:12.310Z,65.71
2022-10-04T09:17:54.083Z,65.75
2022-10-04T09:20:38.349Z,66.53
2022-10-04T09:23:39.462Z,66.33
2022-10-04T09:26:23.060Z,65.18
2022-10-04T09:29:26.673Z,67.63
2022-10-04T09:32:17.326Z,66.09
2022-10-04T09:35:12.912Z,65.25
2022-10-04T09:38:14.854Z,64.43
2022-10-04T09:41:13.842Z,64.82
2022-10-04T09:44:17.881Z,63.03
2022-10-04T09:46:53.293Z,65.84
2022-10-04T09:49:25.490Z,64.61
2022-10-04T09:52:19.744Z,63.83
2022-10-04T09:55:01.448Z,63.38
2022-10-04T09:57:53.145Z,64.94
2022-10-04T10:00:58.881Z,64.26
2022-10-04T10:03:53.049Z,63.37
2022-10-04T10:06:41.891Z,63.58
2022-10-04T10:09:27.474Z,66.58
2022-10-04T10:12:22.455Z,63.41
2022-10-04T10:15:24.502Z,65.42
2022-10-04T10:18:13.534Z,62.68
2022-10-04T10:20:49.227Z,61.94
2022-10-04T10:23:31.644Z,63.39
2022-10-04T10:26:19.073Z,62.42
2022-10-04T10:29:15.709Z,60.44
2022-10-04T10:32:00.396Z,62.16
2022-10-04T10:35:05.779Z,61.43
2022-10-04T10:38:04.925Z,60.21
2022-10-04T10:40:48.172Z,60.87
2022-10-04T10:43:35.437Z,58.88
2022-10-04T10:46:23.592Z,61.12
2022-10-04T10:49:24.110Z,61.39
2022-10-04T10:52:28.135Z,59.59
2022-10-04T10:55:15.968Z,58.73
2022-10-04T10:58:02.747Z,59.85
2022-10-04T11:01:03.264Z,60.93
2022-10-04T11:04:11.222Z,59.82
2022-10-04T11:07:04.100Z,56.17
2022-10-04T11:10:17.500Z,57.91
2022-10-04T11:12:51.924Z,56.84
2022-10-04T11:15:49.457Z,57.98
2022-10-04T11:18:25.254Z,59.06
2022-10-04T11:20:54.709Z,57.67
2022-10-04T11:23:56.886Z,57.24
2022-10-04T11:26:47.847Z,58.44
2022-10-04T11:29:23.547Z,59.38
2022-10-04T11:32:15.563Z,56.15
2022-10-04T11:35:29.271Z,56.42
2022-10-04T11:38:24.839Z,57.79
2022-10-04T11:41:09.184Z,59.39
2022-10-04T11:43:57.010Z,58.29
2022-10-04T11:46:27.962Z,60.19
2022-10-04T11:49:13.160Z,56.67
2022-10-04T11:52:10.821Z,56.63
2022-10-04T11:54:56.027Z,60.20
2022-10-04T11:57:39.976Z,54.35
2022-10-04T12:00:18.098Z,58.65
2022-10-04T12:02:49.175Z,54.84
2022-10-04T12:05:34.027Z,57.83
2022-10-04T12:08:15.031Z,54.14
2022-10-04T12:10:49.361Z,57.81
2022-10-04T12:13:33.727Z,56.00
2022-10-04T12:16:30.555Z,52.14
2022-10-04T12:19:15.596Z,56.25
2022-10-04T12:22:03.332Z,54.85
2022-10-04T12:24:29.753Z,57.17
2022-10-04T12:26:59.174Z,57.55
2022-10-04T12:29:25.617Z,56.47
2022-10-04T12:31:58.653Z,54.65
2022-10-04T12:34:39.061Z,53.60
2022-10-04T12:37:16.595Z,53.45
2022-10-04T12:39:52.244Z,56.16
2022-10-04T12:42:55.151Z,55.83
2022-10-04T12:45:48.593Z,54.54
2022-10-04T12:48:57.216Z,55.71
2022-10-04T12:51:37.240Z,57.33
2022-10-04T12:54:36.512Z,52.17
2022-10-04T12:57:12.011Z,53.36
2022-10-04T13:00:05.204Z,53.06
2022-10-04T13:02:34.389Z,55.85
2022-10-04T13:05:16.853Z,55.00
2022-10-04T13:08:04.556Z,52.46
2022-10-04T13:10:56.186Z,55.51
2022-10-04T13:13:49.516Z,51.64
2022-10-04T13:19:17.278Z,52.39
2022-10-04T13:22:51.454Z,52.92
2022-10-04T13:25:26.907Z,55.44
2022-10-04T13:28:17.093Z,52.40
2022-10-04T13:30:52.921Z,54.42
2022-10-04T13:33:50.791Z,56.07
2022-10-04T13:36:49.145Z,52.39
2022-10-04T13:39:49.599Z,54.11
2022-10-04T13:42:19.118Z,53.21
2022-10-04T13:44:51.351Z,54.18
2022-10-04T13:48:02.676Z,52.69
2022-10-04T13:50:44.822Z,55.11
2022-10-04T13:54:02.684Z,53.35
2022-10-04T13:56:35.203Z,52.78
2022-10-04T13:59:23.616Z,52.14
2022-10-04T14:02:10.300Z,53.98
2022-10-04T14:05:18.059Z,51.58
2022-10-04T14:08:09.105Z,50.76
2022-10-04T14:11:00.230Z,51.90
2022-10-04T14:13:45.547Z,51.68
2022-10-04T14:16:30.563Z,54.57
2022-10-04T14:19:28.790Z,50.52
2022-10-04T14:22:19.566Z,51.49
2022-10-04T14:25:18.864Z,53.12
2022-10-04T14:28:14.144Z,51.70
2022-10-04T14:30:53.267Z,54.46
2022-10-04T14:33:38.556Z,55.11
2022-10-04T14:36:28.800Z,54.51
2022-10-04T14:39:03.765Z,55.15
2022-10-04T14:41:45.880Z,53.33
2022-10-04T14:44:21.263Z,54.91
2022-10-04T14:46:50.503Z,54.73
2022-10-04T14:49:25.061Z,54.18
2022-10-04T14:52:10.665Z,52.45
2022-10-04T14:54:50.458Z,53.06
2022-10-04T14:57:45.156Z,54.52
2022-10-04T15:00:23.822Z,53.60
2022-10-04T15:03:11.735Z,54.83
2022-10-04T15:05:53.401Z,55.13
2022-10-04T15:08:22.697Z,54.87
2022-10-04T15:10:54.770Z,55.21
2022-10-04T15:13:32.509Z,55.41
2022-10-04T15:16:13.873Z,55.53
2022-10-04T15:19:04.220Z,56.12
2022-10-04T15:21:43.928Z,56.65
2022-10-04T15:24:31.380Z,56.95
2022-10-04T15:27:35.241Z,56.70
2022-10-04T15:30:01.733Z,58.12
2022-10-04T15:32:48.688Z,58.11
2022-10-04T15:35:24.224Z,57.66
2022-10-04T15:38:04.721Z,58.00
2022-10-04T15:41:13.651Z,58.27
2022-10-04T15:43:45.451Z,58.35
2022-10-04T15:46:42.928Z,58.07
2022-10-04T15:49:28.208Z,59.31
2022-10-04T15:52:06.729Z,58.90
2022-10-04T15:55:01.770Z,58.78
2022-10-04T15:58:01.412Z,59.31
2022-10-04T16:01:06.945Z,59.24
2022-10-04T16:03:54.441Z,59.79
2022-10-04T16:06:34.186Z,60.17
2022-10-04T16:09:12.688Z,59.94
2022-10-04T16:11:57.952Z,59.97
2022-10-04T16:14:37.581Z,60.35
2022-10-04T16:17:28.311Z,60.68
2022-10-04T16:20:13.637Z,61.33
2022-10-04T16:22:40.331Z,61.78
2022-10-04T16:25:24.841Z,61.43
2022-10-04T16:27:57.570Z,61.67
2022-10-04T16:30:33.431Z,61.57
2022-10-04T16:33:29.618Z,61.56
2022-10-04T16:36:09.883Z,61.73
2022-10-04T16:38:45.139Z,61.76
2022-10-04T16:41:16.018Z,62.14
2022-10-04T16:43:56.546Z,62.05
2022-10-04T16:46:36.377Z,62.12
2022-10-04T16:49:20.899Z,62.35
2022-10-04T16:52:00.748Z,62.54
2022-10-04T16:54:38.939Z,62.73
2022-10-04T16:57:16.831Z,63.04
2022-10-04T16:59:44.999Z,62.83
2022-10-04T17:02:34.431Z,63.08
2022-10-04T17:05:20.951Z,63.29
2022-10-04T17:08:20.686Z,63.21
2022-10-04T17:10:50.105Z,63.46
2022-10-04T17:13:46.958Z,63.43
2022-10-04T17:16:35.836Z,63.67
2022-10-04T17:19:25.583Z,63.51
2022-10-04T17:21:52.018Z,63.83
2022-10-04T17:24:41.816Z,63.88
2022-10-04T17:27:08.277Z,64.16
2022-10-04T17:29:46.917Z,64.06
2022-10-04T17:32:22.790Z,64.29
2022-10-04T17:35:12.165Z,64.54
2022-10-04T17:37:44.302Z,64.54
2022-10-04T17:40:27.635Z,64.71
2022-10-04T17:43:20.523Z,64.84
2022-10-04T17:46:02.067Z,64.86
2022-10-04T17:48:31.635Z,65.00
2022-10-04T17:51:16.840Z,65.05
2022-10-04T17:53:48.971Z,65.13
2022-10-04T17:56:27.357Z,65.37
2022-10-04T17:58:55.963Z,65.24
2022-10-04T18:01:54.748Z,65.25
2022-10-04T18:04:27.300Z,65.46
2022-10-04T18:07:09.721Z,65.56
2022-10-04T18:09:52.425Z,65.51
2022-10-04T18:13:04.905Z,65.52
2022-10-04T18:15:42.030Z,65.66
2022-10-04T18:18:14.967Z,65.84
2022-10-04T18:20:56.271Z,65.84
2022-10-04T18:23:26.983Z,65.96
2022-10-04T18:25:58.643Z,65.98
2022-10-04T18:28:25.876Z,65.96
2022-10-04T18:30:53.919Z,66.03
2022-10-04T18:33:26.443Z,66.04
2022-10-04T18:36:02.615Z,65.63
2022-10-04T18:38:31.334Z,65.86
2022-10-04T18:41:02.963Z,65.85
2022-10-04T18:43:35.045Z,66.02
2022-10-04T18:46:05.350Z,66.13
2022-10-04T18:48:50.946Z,66.00
2022-10-04T18:51:37.633Z,66.00
2022-10-04T18:54:28.903Z,66.36
2022-10-04T18:57:21.365Z,66.32
2022-10-04T19:00:02.374Z,66.45
2022-10-04T19:02:53.537Z,66.38
2022-10-04T19:05:30.364Z,66.40
2022-10-04T19:08:04.333Z,66.55
2022-10-04T19:11:11.671Z,66.46
2022-10-04T19:14:02.667Z,66.54
2022-10-04T19:16:54.533Z,66.50
2022-10-04T19:19:29.738Z,66.65
2022-10-04T19:22:16.543Z,66.67
2022-10-04T19:25:05.394Z,66.59
2022-10-04T19:27:52.127Z,66.55
2022-10-04T19:30:27.455Z,66.63
2022-10-04T19:33:01.858Z,66.42
2022-10-04T19:35:57.497Z,66.09
2022-10-04T19:38:43.316Z,66.17
2022-10-04T19:41:24.353Z,66.29
2022-10-04T19:44:15.101Z,66.09
2022-10-04T19:47:08.102Z,66.40
2022-10-04T19:49:43.972Z,66.53
2022-10-04T19:52:19.003Z,65.85
2022-10-04T19:54:45.588Z,66.31
2022-10-04T19:57:13.457Z,66.29
2022-10-04T19:59:41.644Z,66.43
2022-10-04T20:02:10.448Z,65.91
2022-10-04T20:04:37.382Z,66.41
2022-10-04T20:07:18.313Z,66.35
2022-10-04T20:09:44.763Z,66.52
2022-10-04T20:12:37.801Z,66.28
2022-10-04T20:15:16.417Z,66.33
2022-10-04T20:17:44.699Z,66.74
2022-10-04T20:20:35.481Z,66.54
2022-10-04T20:23:02.192Z,66.76
2022-10-04T20:25:43.998Z,66.28
2022-10-04T20:28:26.279Z,66.84
2022-10-04T20:30:57.578Z,66.85
2022-10-04T20:33:36.259Z,66.51
2022-10-04T20:36:02.776Z,66.88
2022-10-04T20:38:50.110Z,66.42
2022-10-04T20:41:28.673Z,66.59
2022-10-04T20:44:00.594Z,67.02
2022-10-04T20:46:33.475Z,67.19
2022-10-04T20:49:02.448Z,67.11
2022-10-04T20:51:30.738Z,67.12
2022-10-04T20:53:57.273Z,67.44
2022-10-04T20:56:30.340Z,67.06
2022-10-04T20:58:59.816Z,67.15
2022-10-04T21:01:28.916Z,67.32
2022-10-04T21:04:28.614Z,66.90
2022-10-04T21:07:06.268Z,67.27
2022-10-04T21:09:37.708Z,67.16
2022-10-04T21:12:05.763Z,67.27
2022-10-04T21:14:35.477Z,67.29
2022-10-04T21:17:22.993Z,67.30
2022-10-04T21:19:49.486Z,67.48
2022-10-04T21:22:15.914Z,67.46
2022-10-04T21:24:52.920Z,67.47
2022-10-04T21:27:35.734Z,67.04
2022-10-04T21:30:08.180Z,67.33
2022-10-04T21:32:36.796Z,67.33
2022-10-04T21:35:05.403Z,67.26
2022-10-04T21:37:32.671Z,67.54
2022-10-04T21:40:02.814Z,67.49
2022-10-04T21:42:29.329Z,67.63
2022-10-04T21:44:55.830Z,67.61
2022-10-04T21:47:22.613Z,67.58
2022-10-04T21:49:50.278Z,67.59
2022-10-04T21:52:16.715Z,67.61
2022-10-04T21:54:43.367Z,67.75
2022-10-04T21:57:10.416Z,67.82
2022-10-04T21:59:36.997Z,67.86
2022-10-04T22:02:03.682Z,68.05
2022-10-04T22:04:30.263Z,67.96
2022-10-04T22:06:56.772Z,67.96
2022-10-04T22:09:23.227Z,67.89
2022-10-04T22:11:49.705Z,67.78
2022-10-04T22:14:16.367Z,68.03
2022-10-04T22:16:42.982Z,67.90
2022-10-04T22:19:09.537Z,67.82
2022-10-04T22:21:36.035Z,67.72
2022-10-04T22:24:04.044Z,67.72
2022-10-04T22:26:31.188Z,67.62
2022-10-04T22:28:57.871Z,67.65
2022-10-04T22:31:29.176Z,67.25
2022-10-04T22:33:56.587Z,67.65
2022-10-04T22:36:37.819Z,67.13
2022-10-04T22:39:14.381Z,67.23
2022-10-04T22:41:55.503Z,67.37
2022-10-04T22:44:29.953Z,67.41
2022-10-04T22:47:00.184Z,67.54
2022-10-04T22:49:37.314Z,67.22
2022-10-04T22:52:13.286Z,67.36
2022-10-04T22:54:45.981Z,67.70
2022-10-04T22:57:14.774Z,67.78
2022-10-04T22:59:52.400Z,67.82
2022-10-04T23:02:29.193Z,67.75
2022-10-04T23:05:12.061Z,67.75
2022-10-04T23:07:38.846Z,68.03
2022-10-04T23:10:06.288Z,68.02
2022-10-04T23:12:33.135Z,68.01
2022-10-04T23:15:01.756Z,67.90
2022-10-04T23:17:39.527Z,67.67
2022-10-04T23:20:08.838Z,67.89
2022-10-04T23:22:35.706Z,68.09
2022-10-04T23:25:02.255Z,68.30
2022-10-04T23:27:28.856Z,68.11
2022-10-04T23:30:01.064Z,68.02
2022-10-04T23:32:27.882Z,68.16
2022-10-04T23:34:56.834Z,68.28
2022-10-04T23:37:26.088Z,68.04
2022-10-04T23:43:15.553Z,67.77
2022-10-04T23:45:42.292Z,68.10
2022-10-04T23:48:11.231Z,68.09
2022-10-04T23:50:39.263Z,68.05
2022-10-04T23:53:14.299Z,67.69
2022-10-04T23:55:43.996Z,68.04
2022-10-04T23:58:16.391Z,67.82
